Latest Weather Observations for Darwin Harbour

IDD60801

Issued at 1:01 pm CST Wednesday 22 February 2017 (issued every 30 minutes, with the page automatically refreshed every 10 minutes)

About weather observations | Map of weather stations | Latest weather observations for NT | Other Formats
Station Details ID: 014072 Name: DARWIN NTC AWS Lat: -12.47 Lon: 130.85 Height: 0.0 m
Data from the previous 72 hours. | See also: Recent months for locations in Northern Territory
Date/Time
CST
Temp
°C
App
Temp
°C
Dew
Point
°C
Rel
Hum
%
Delta-T
°C
Wind Press
QNH
hPa
Press
MSL
hPa
Rain since
9am
mm
Dir  Spd
km/h
Gust
km/h
Spd
kts
Gust
kts
22/01:00pm - - - - - W 17 22 9 12 1009.1 1009.0 -
22/12:30pm - - - - - WNW 13 19 7 10 1009.6 1009.5 -
22/12:00pm - - - - - WNW 9 17 5 9 1010.0 1009.9 -
22/11:30am - - - - - W 7 11 4 6 1010.4 1010.3 -
22/11:00am - - - - - W 7 9 4 5 1010.6 1010.5 -
22/10:30am - - - - - W 7 9 4 5 1010.8 1010.7 -
22/10:00am - - - - - WSW 9 13 5 7 1010.8 1010.7 -
22/09:30am - - - - - W 11 15 6 8 1010.9 1010.8 -
22/09:00am - - - - - WSW 7 11 4 6 1011.2 1011.1 -
22/08:30am - - - - - WSW 7 11 4 6 1011.0 1010.9 -
22/08:00am - - - - - WSW 9 13 5 7 1010.7 1010.6 -
22/07:30am - - - - - WSW 7 9 4 5 1010.3 1010.2 -
22/07:00am - - - - - WSW 7 9 4 5 1010.1 1010.0 -
22/06:30am - - - - - WSW 9 11 5 6 1009.8 1009.7 -
22/06:00am - - - - - W 6 9 3 5 1009.5 1009.4 -
22/05:30am - - - - - W 7 11 4 6 1009.3 1009.2 -
22/05:00am - - - - - W 9 13 5 7 1009.0 1008.9 -
22/04:30am - - - - - W 9 13 5 7 1008.7 1008.6 -
22/04:00am - - - - - W 11 17 6 9 1008.4 1008.3 -
22/03:30am - - - - - W 11 15 6 8 1008.2 1008.1 -
22/03:00am - - - - - W 11 15 6 8 1008.3 1008.2 -
22/02:30am - - - - - W 9 13 5 7 1008.4 1008.3 -
22/02:00am - - - - - WSW 11 15 6 8 1008.6 1008.5 -
22/01:30am - - - - - WSW 9 15 5 8 1008.8 1008.7 -
22/01:00am - - - - - WSW 11 13 6 7 1009.0 1008.9 -
22/12:30am - - - - - WSW 13 17 7 9 1009.3 1009.2 -
22/12:00am - - - - - W 11 15 6 8 1009.6 1009.5 -
 
Date/Time
CST
Temp
°C
App
Temp
°C
Dew
Point
°C
Rel
Hum
%
Delta-T
°C
Wind Press
QNH
hPa
Press
MSL
hPa
Rain since
9am
mm
Dir  Spd
km/h
Gust
km/h
Spd
kts
Gust
kts
21/11:30pm - - - - - W 13 17 7 9 1009.8 1009.7 -
21/11:00pm - - - - - W 13 19 7 10 1010.0 1009.9 -
21/10:30pm - - - - - W 11 17 6 9 1009.9 1009.8 -
21/10:00pm - - - - - W 11 15 6 8 1009.9 1009.8 -
21/09:30pm - - - - - W 13 15 7 8 1009.5 1009.4 -
21/09:00pm - - - - - W 15 19 8 10 1009.1 1009.0 -
21/08:30pm - - - - - WSW 15 19 8 10 1009.0 1008.9 -
21/08:00pm - - - - - W 13 17 7 9 1008.6 1008.5 -
21/07:30pm - - - - - W 15 20 8 11 1008.4 1008.3 -
21/07:00pm - - - - - W 19 24 10 13 1008.2 1008.1 -
21/06:30pm - - - - - W 20 28 11 15 1008.0 1007.9 -
21/06:00pm - - - - - W 22 28 12 15 1007.6 1007.5 -
21/05:30pm - - - - - W 22 28 12 15 1007.4 1007.3 -
21/05:00pm - - - - - WNW 22 28 12 15 1007.4 1007.3 -
21/04:30pm - - - - - WNW 19 26 10 14 1007.3 1007.2 -
21/04:00pm - - - - - WNW 17 22 9 12 1007.3 1007.2 -
21/03:30pm 31.9 - - - - WNW 9 15 5 8 1007.5 1007.4 -
21/03:00pm - - - - - W 6 9 3 5 1007.7 1007.6 -
21/02:30pm - - - - - W 6 9 3 5 1008.1 1008.0 -
21/02:00pm - - - - - SW 4 6 2 3 1008.6 1008.5 -
21/01:30pm - - - - - SW 4 6 2 3 1009.2 1009.1 -
21/01:00pm - - - - - WSW 4 6 2 3 1009.9 1009.8 -
21/12:30pm - - - - - WSW 4 6 2 3 1010.5 1010.4 -
21/12:00pm - - - - - W 2 6 1 3 1010.9 1010.8 -
21/11:30am - - - - - SSW 4 7 2 4 1011.2 1011.1 -
21/11:00am - - - - - SW 7 9 4 5 1011.4 1011.3 -
21/10:30am - - - - - SW 6 9 3 5 1011.8 1011.7 -
21/10:00am - - - - - SW 7 11 4 6 1011.8 1011.7 -
21/09:30am - - - - - SW 9 13 5 7 1011.7 1011.6 -
21/09:00am - - - - - WSW 11 15 6 8 1011.6 1011.5 -
21/08:30am - - - - - WSW 11 15 6 8 1011.1 1011.0 -
21/08:00am - - - - - WSW 9 13 5 7 1010.6 1010.5 -
21/07:30am - - - - - WSW 9 11 5 6 1010.1 1010.0 -
21/07:00am - - - - - SW 7 9 4 5 1009.5 1009.4 -
21/06:30am - - - - - SW 11 15 6 8 1008.8 1008.7 -
21/06:00am - - - - - SW 13 17 7 9 1008.4 1008.3 -
21/05:30am - - - - - WSW 11 17 6 9 1008.1 1008.0 -
21/05:00am - - - - - WSW 13 17 7 9 1007.9 1007.8 -
21/04:30am - - - - - WSW 11 17 6 9 1007.7 1007.6 -
21/04:00am - - - - - WSW 13 17 7 9 1007.5 1007.4 -
21/03:30am - - - - - WSW 13 17 7 9 1007.7 1007.6 -
21/03:00am - - - - - W 13 15 7 8 1007.9 1007.8 -
21/02:30am - - - - - W 13 15 7 8 1008.0 1007.9 -
21/02:00am - - - - - W 13 15 7 8 1008.1 1008.0 -
21/01:30am - - - - - WSW 15 19 8 10 1008.3 1008.2 -
21/01:00am - - - - - WSW 17 20 9 11 1008.4 1008.3 -
21/12:30am - - - - - WSW 13 17 7 9 1008.8 1008.7 -
21/12:00am - - - - - WSW 15 19 8 10 1008.9 1008.8 -
 
Date/Time
CST
Temp
°C
App
Temp
°C
Dew
Point
°C
Rel
Hum
%
Delta-T
°C
Wind Press
QNH
hPa
Press
MSL
hPa
Rain since
9am
mm
Dir  Spd
km/h
Gust
km/h
Spd
kts
Gust
kts
20/11:30pm - - - - - W 11 15 6 8 1009.3 1009.2 -
20/11:00pm - - - - - W 11 15 6 8 1009.2 1009.1 -
20/10:30pm - - - - - WNW 13 15 7 8 1009.2 1009.1 -
20/10:00pm - - - - - W 13 17 7 9 1009.0 1008.9 -
20/09:30pm - - - - - WNW 13 17 7 9 1008.9 1008.8 -
20/09:00pm - - - - - W 13 17 7 9 1008.6 1008.5 -
20/08:30pm - - - - - W 13 17 7 9 1008.2 1008.1 -
20/08:00pm - - - - - WNW 15 20 8 11 1007.9 1007.8 -
20/07:30pm - - - - - WNW 19 22 10 12 1007.6 1007.5 -
20/07:00pm - - - - - WNW 15 19 8 10 1007.1 1007.0 -
20/06:30pm - - - - - WNW 15 20 8 11 1006.7 1006.6 -
20/06:00pm - - - - - WNW 15 20 8 11 1006.3 1006.2 -
20/05:30pm - - - - - WNW 15 22 8 12 1005.8 1005.7 -
20/05:00pm - - - - - WNW 17 24 9 13 1005.6 1005.5 -
20/04:30pm - - - - - NW 19 24 10 13 1005.4 1005.3 -
20/04:00pm - - - - - WNW 15 20 8 11 1005.4 1005.3 -
20/03:30pm - - - - - WNW 15 20 8 11 1005.7 1005.6 -
20/03:00pm - - - - - WNW 15 19 8 10 1005.9 1005.8 -
20/02:30pm - - - - - WNW 11 17 6 9 1006.3 1006.2 -
20/02:00pm - - - - - WNW 11 15 6 8 1006.7 1006.6 -
20/01:30pm - - - - - W 11 17 6 9 1007.0 1006.9 -
20/01:00pm - - - - - W 4 7 2 4 1007.6 1007.5 -
20/12:30pm - - - - - W 4 6 2 3 1008.0 1007.9 -
20/12:00pm - - - - - W 6 9 3 5 1008.2 1008.1 -
20/11:30am - - - - - W 2 6 1 3 1008.5 1008.4 -
20/11:00am - - - - - W 4 6 2 3 1009.0 1008.9 -
20/10:30am - - - - - W 4 6 2 3 1009.2 1009.1 -
20/10:00am - - - - - W 6 7 3 4 1009.2 1009.1 -
20/09:30am - - - - - WNW 7 9 4 5 1009.3 1009.2 -
20/09:00am - - - - - W 6 11 3 6 1009.2 1009.1 -
20/08:30am - - - - - SE 2 6 1 3 1008.9 1008.8 -
20/08:00am - - - - - WNW 4 7 2 4 1008.8 1008.7 -
20/07:30am - - - - - N 6 9 3 5 1008.3 1008.2 -
20/07:00am - - - - - NW 4 6 2 3 1007.9 1007.8 -
20/06:30am - - - - - E 4 7 2 4 1007.6 1007.5 -
20/06:00am - - - - - ENE 4 7 2 4 1007.4 1007.3 -
20/05:30am - - - - - ENE 4 9 2 5 1007.3 1007.2 -
20/05:00am - - - - - SSE 4 6 2 3 1007.3 1007.2 -
20/04:30am - - - - - SW 7 11 4 6 1007.4 1007.3 -
20/04:00am - - - - - SW 13 17 7 9 1006.9 1006.8 -
20/03:30am - - - - - WSW 7 9 4 5 1006.6 1006.5 -
20/03:00am - - - - - W 13 20 7 11 1006.8 1006.7 -
20/02:30am - - - - - SSW 22 32 12 17 1006.9 1006.8 -
20/02:12am - - - - - S 39 78 21 42 1007.1 1007.0 -
20/02:09am - - - - - SSE 43 78 23 42 1007.5 1007.4 -
20/02:08am - - - - - SSE 41 78 22 42 1007.4 1007.3 -
20/02:07am - - - - - SSE 39 78 21 42 1007.3 1007.2 -
20/02:05am - - - - - SSE 37 57 20 31 1007.6 1007.5 -
20/02:00am - - - - - SE 39 56 21 30 1007.2 1007.1 -
20/01:54am - - - - - ESE 30 56 16 30 1007.1 1007.0 -
20/01:45am - - - - - SE 24 39 13 21 1007.5 1007.4 -
20/01:30am - - - - - WSW 15 19 8 10 1007.2 1007.1 -
20/01:00am - - - - - W 15 20 8 11 1007.2 1007.1 -
20/12:30am - - - - - W 13 17 7 9 1007.6 1007.5 -
20/12:00am - - - - - WSW 15 22 8 12 1007.7 1007.6 -
 
Date/Time
CST
Temp
°C
App
Temp
°C
Dew
Point
°C
Rel
Hum
%
Delta-T
°C
Wind Press
QNH
hPa
Press
MSL
hPa
Rain since
9am
mm
Dir  Spd
km/h
Gust
km/h
Spd
kts
Gust
kts
19/11:30pm - - - - - WSW 15 19 8 10 1007.7 1007.6 -
19/11:00pm - - - - - WSW 17 22 9 12 1007.7 1007.6 -
19/10:30pm - - - - - WSW 17 22 9 12 1007.9 1007.8 -
19/10:00pm - - - - - WSW 19 24 10 13 1007.6 1007.5 -
19/09:30pm - - - - - WSW 19 26 10 14 1007.5 1007.4 -
19/09:00pm - - - - - WSW 19 22 10 12 1006.9 1006.8 -
19/08:30pm - - - - - WSW 19 26 10 14 1006.5 1006.4 -
19/08:00pm - - - - - WSW 17 24 9 13 1006.3 1006.2 -
19/07:30pm - - - - - WSW 20 28 11 15 1006.0 1005.9 -
19/07:00pm - - - - - WSW 24 30 13 16 1005.8 1005.7 -
19/06:30pm - - - - - WSW 24 32 13 17 1005.2 1005.1 -
19/06:00pm - - - - - WSW 20 24 11 13 1004.8 1004.7 -
19/05:30pm - - - - - W 20 26 11 14 1004.7 1004.6 -
19/05:00pm - - - - - W 6 7 3 4 1004.7 1004.6 -
19/04:30pm - - - - - WNW 2 6 1 3 1005.1 1005.0 -
19/04:00pm - - - - - S 4 24 2 13 1005.9 1005.8 -
19/03:30pm - - - - - W 17 22 9 12 1005.8 1005.7 -
19/03:00pm - - - - - W 22 30 12 16 1005.2 1005.1 -
19/02:30pm - - - - - W 20 32 11 17 1005.4 1005.3 -
19/02:00pm - - - - - W 22 32 12 17 1005.9 1005.8 -
19/01:30pm - - - - - W 24 33 13 18 1006.4 1006.3 -

Other Formats:

Comma delimited format used in spreadsheet applications
http://www.bom.gov.au/fwo/IDD60801/IDD60801.95122.axf

JavaScript Object Notation format (JSON) in row-major order
http://www.bom.gov.au/fwo/IDD60801/IDD60801.95122.json